Time;durP1;ratioP1;P1;durP2;ratioP2;P2;SDS_P1;SDS_P2;PMS_P1;PMS_P2;Temp;Humidity;BMP_temperature;BMP_pressure;BME280_temperature;BME280_humidity;BME280_pressure;Samples;Min_cycle;Max_cycle;Signal;HPM_P1;HPM_P2
2023/07/18 00:00:51;;;;;;;2.08;0.85;;;;;;;;;;5008215;28;20036;-81
2023/07/18 00:03:17;;;;;;;1.83;0.68;;;;;;;;;;5002074;28;20036;-80
2023/07/18 00:05:43;;;;;;;3.85;0.60;;;;;;;;;;5007848;28;20108;-81
2023/07/18 00:08:09;;;;;;;1.80;0.65;;;;;;;;;;5006901;28;20545;-85
2023/07/18 00:10:35;;;;;;;1.70;0.38;;;;;;;;;;5005722;28;20048;-81
2023/07/18 00:13:02;;;;;;;3.28;0.77;;;;;;;;;;5006489;28;20022;-83
2023/07/18 00:15:28;;;;;;;2.20;0.57;;;;;;;;;;5005781;28;20042;-82
2023/07/18 00:17:54;;;;;;;3.28;0.75;;;;;;;;;;5011149;28;20650;-85
2023/07/18 00:20:22;;;;;;;1.67;0.70;;;;;;;;;;5012869;28;20964;-82
2023/07/18 00:22:49;;;;;;;4.63;0.80;;;14.00;99.90;;;;;;5011125;28;20029;-81
2023/07/18 00:25:16;;;;;;;2.95;0.68;;;;;;;;;;5020691;28;20559;-82
2023/07/18 00:27:43;;;;;;;2.67;0.90;;;14.50;99.90;;;;;;5016986;28;20123;-81
2023/07/18 00:30:09;;;;;;;2.55;0.55;;;;;;;;;;5007789;28;20049;-85
2023/07/18 00:32:36;;;;;;;2.40;1.35;;;;;;;;;;5016117;28;20038;-82
2023/07/18 00:35:03;;;;;;;6.47;0.82;;;14.10;99.90;;;;;;5006729;28;20033;-86
2023/07/18 00:37:31;;;;;;;4.13;0.77;;;;;;;;;;5006548;28;20540;-79
2023/07/18 00:39:57;;;;;;;6.22;0.60;;;;;;;;;;5011916;28;20374;-84
2023/07/18 00:42:23;;;;;;;3.60;0.77;;;;;;;;;;5007890;28;20037;-83
2023/07/18 00:44:49;;;;;;;2.13;0.65;;;14.10;99.90;;;;;;5006387;28;20044;-85
2023/07/18 00:47:16;;;;;;;1.38;0.52;;;13.80;99.90;;;;;;5012080;28;20025;-80
2023/07/18 00:49:43;;;;;;;1.38;0.60;;;;;;;;;;5004395;28;20029;-86
2023/07/18 00:52:10;;;;;;;2.05;0.82;;;;;;;;;;5005342;28;20026;-82
2023/07/18 00:54:36;;;;;;;2.15;0.88;;;;;;;;;;5005020;28;20030;-83
2023/07/18 00:57:02;;;;;;;0.88;0.40;;;;;;;;;;5009195;28;20109;-87
2023/07/18 00:59:29;;;;;;;2.92;0.80;;;;;;;;;;5010928;28;20069;-80
2023/07/18 01:01:55;;;;;;;1.90;0.85;;;;;;;;;;5004678;28;20026;-80
2023/07/18 01:04:21;;;;;;;1.13;0.52;;;;;;;;;;5007475;28;20038;-81
2023/07/18 01:06:48;;;;;;;0.98;0.55;;;;;;;;;;5009241;28;20112;-80
2023/07/18 01:09:14;;;;;;;1.80;0.65;;;;;;;;;;5005464;28;20127;-80
2023/07/18 01:11:40;;;;;;;3.22;0.85;;;;;;;;;;5004958;28;20109;-80
2023/07/18 01:14:06;;;;;;;2.63;0.70;;;;;;;;;;5005353;28;20026;-79
2023/07/18 01:16:32;;;;;;;1.75;0.80;;;;;;;;;;5012334;28;20065;-80
2023/07/18 01:18:58;;;;;;;1.50;0.52;;;;;;;;;;5008871;28;20037;-81
2023/07/18 01:21:24;;;;;;;3.03;0.80;;;;;;;;;;5009026;28;20026;-80
2023/07/18 01:23:50;;;;;;;1.85;0.60;;;;;;;;;;5011960;28;20117;-83
2023/07/18 01:26:16;;;;;;;1.42;0.60;;;;;;;;;;5008314;28;20033;-82
2023/07/18 01:28:42;;;;;;;0.77;0.43;;;;;;;;;;5005215;28;20516;-83
2023/07/18 01:31:09;;;;;;;5.18;0.90;;;;;;;;;;5010309;28;20034;-83
2023/07/18 01:33:35;;;;;;;2.88;0.68;;;;;;;;;;5009769;28;20030;-83
2023/07/18 01:36:02;;;;;;;2.08;0.98;;;;;;;;;;5014630;28;20034;-86
2023/07/18 01:38:31;;;;;;;1.85;0.63;;;;;;;;;;5011870;28;20045;-81
2023/07/18 01:40:59;;;;;;;2.03;0.73;;;;;;;;;;5007903;28;20025;-83
2023/07/18 01:43:25;;;;;;;1.50;0.77;;;;;;;;;;5015241;28;20037;-83
2023/07/18 01:45:51;;;;;;;1.80;0.70;;;;;;;;;;5012169;28;20029;-80
2023/07/18 01:48:19;;;;;;;2.60;0.57;;;;;;;;;;5007402;28;20740;-79
2023/07/18 01:50:45;;;;;;;1.60;0.57;;;;;;;;;;5012997;28;20028;-80
2023/07/18 01:53:11;;;;;;;4.85;1.02;;;;;;;;;;5011588;28;20546;-84
2023/07/18 01:55:40;;;;;;;2.80;1.10;;;13.50;99.90;;;;;;5010710;28;20088;-83
2023/07/18 01:58:06;;;;;;;1.20;0.52;;;;;;;;;;5006910;28;20060;-89
2023/07/18 02:00:32;;;;;;;1.40;0.60;;;;;;;;;;5008708;28;20022;-85
2023/07/18 02:02:58;;;;;;;1.40;0.70;;;;;;;;;;5010703;28;20104;-82
2023/07/18 02:05:25;;;;;;;0.85;0.40;;;;;;;;;;5015981;28;20049;-83
2023/07/18 02:07:51;;;;;;;3.08;0.93;;;;;;;;;;5012689;28;20168;-82
2023/07/18 02:10:20;;;;;;;2.03;0.80;;;;;;;;;;5010379;28;20034;-88
2023/07/18 02:12:46;;;;;;;5.75;0.50;;;;;;;;;;5011632;28;20038;-86
2023/07/18 02:15:15;;;;;;;1.55;0.63;;;;;;;;;;5013819;28;20018;-86
2023/07/18 02:17:42;;;;;;;1.50;0.70;;;;;;;;;;5026432;28;20596;-87
2023/07/18 02:20:11;;;;;;;1.98;1.23;;;;;;;;;;5028844;28;20033;-86
2023/07/18 02:22:38;;;;;;;2.15;0.40;;;;;;;;;;5026455;28;20040;-88
2023/07/18 02:25:04;;;;;;;2.40;0.57;;;12.90;99.90;;;;;;5028561;28;20006;-80
2023/07/18 02:27:31;;;;;;;7.68;0.95;;;;;;;;;;5005159;28;20497;-81
2023/07/18 02:29:57;;;;;;;6.95;1.30;;;;;;;;;;5006732;28;20112;-81
2023/07/18 02:32:23;;;;;;;2.15;0.82;;;;;;;;;;5007884;28;20164;-83
2023/07/18 02:34:49;;;;;;;1.90;0.75;;;;;;;;;;5006879;28;20038;-81
2023/07/18 02:37:15;;;;;;;1.40;0.55;;;;;;;;;;5012901;28;20088;-85
2023/07/18 02:39:44;;;;;;;1.10;0.40;;;;;;;;;;5014162;28;20030;-82
2023/07/18 02:42:10;;;;;;;1.58;0.75;;;;;;;;;;5008892;28;20048;-83
2023/07/18 02:44:37;;;;;;;1.55;0.57;;;12.70;99.90;;;;;;5006624;28;20037;-80
2023/07/18 02:47:03;;;;;;;3.35;0.60;;;;;;;;;;5006039;28;20401;-83
2023/07/18 02:49:29;;;;;;;2.13;0.60;;;;;;;;;;5009434;28;20022;-81
2023/07/18 02:51:55;;;;;;;3.95;1.10;;;;;;;;;;5008164;28;20037;-82
2023/07/18 02:54:21;;;;;;;2.97;0.88;;;;;;;;;;5006803;28;20033;-85
2023/07/18 02:56:48;;;;;;;1.10;0.60;;;;;;;;;;5005844;28;20103;-81
2023/07/18 02:59:20;;;;;;;1.52;0.73;;;;;;;;;;5004215;28;20034;-84
2023/07/18 03:01:46;;;;;;;3.75;1.52;;;;;;;;;;5004662;28;20026;-81
2023/07/18 03:04:12;;;;;;;2.03;0.82;;;;;;;;;;5006621;28;20029;-82
2023/07/18 03:06:38;;;;;;;5.22;0.85;;;;;;;;;;5007978;28;20052;-83
2023/07/18 03:09:05;;;;;;;2.67;0.70;;;;;;;;;;5010372;28;20026;-81
2023/07/18 03:11:31;;;;;;;4.18;0.65;;;;;;;;;;5009375;28;20076;-81
2023/07/18 03:13:57;;;;;;;3.88;0.90;;;;;;;;;;5005144;28;20022;-80
2023/07/18 03:16:23;;;;;;;5.22;0.70;;;12.50;99.90;;;;;;5005836;28;20049;-80
2023/07/18 03:18:49;;;;;;;2.65;0.90;;;;;;;;;;5001692;28;20041;-82
2023/07/18 03:21:16;;;;;;;11.07;1.45;;;;;;;;;;5011394;28;20021;-85
2023/07/18 03:23:42;;;;;;;2.03;0.88;;;;;;;;;;5018607;28;20049;-81
2023/07/18 03:26:08;;;;;;;2.63;0.70;;;;;;;;;;5011825;28;20022;-82
2023/07/18 03:28:34;;;;;;;2.70;0.98;;;;;;;;;;5014146;28;20499;-83
2023/07/18 03:31:00;;;;;;;5.68;1.70;;;;;;;;;;5016723;28;20034;-79
2023/07/18 03:33:26;;;;;;;1.65;0.73;;;;;;;;;;5015861;28;20029;-83
2023/07/18 03:35:52;;;;;;;5.18;0.60;;;;;;;;;;5018005;28;20049;-84
2023/07/18 03:38:18;;;;;;;4.57;1.15;;;;;;;;;;5019604;28;20037;-82
2023/07/18 03:40:44;;;;;;;4.80;0.73;;;;;;;;;;5021725;28;20097;-84
2023/07/18 03:43:10;;;;;;;3.17;0.75;;;;;;;;;;5020416;28;20030;-83
2023/07/18 03:45:36;;;;;;;2.35;0.70;;;;;;;;;;5017912;28;20032;-82
2023/07/18 03:48:02;;;;;;;3.75;1.02;;;;;;;;;;5017384;28;20130;-81
2023/07/18 03:50:28;;;;;;;0.82;0.40;;;;;;;;;;5015333;28;20029;-83
2023/07/18 03:52:54;;;;;;;2.90;1.40;;;;;;;;;;5015250;28;20034;-84
2023/07/18 03:55:20;;;;;;;0.95;0.52;;;;;;;;;;5016371;28;20596;-83
2023/07/18 03:57:46;;;;;;;1.50;0.60;;;;;;;;;;5020251;28;20026;-83
2023/07/18 04:00:13;;;;;;;1.50;0.60;;;;;;;;;;5014422;28;20037;-81
2023/07/18 04:02:42;;;;;;;3.30;0.95;;;;;;;;;;5001762;28;20034;-83
2023/07/18 04:05:09;;;;;;;2.80;1.23;;;;;;;;;;5012281;28;20084;-85
2023/07/18 04:07:35;;;;;;;1.40;0.70;;;;;;;;;;5010488;28;20610;-84
2023/07/18 04:10:01;;;;;;;2.30;0.85;;;;;;;;;;5015177;28;21243;-84
2023/07/18 04:12:27;;;;;;;1.80;0.60;;;;;;;;;;5019434;28;20068;-84
2023/07/18 04:14:52;;;;;;;2.38;0.85;;;;;;;;;;4998070;28;20026;-85
2023/07/18 04:17:18;;;;;;;0.82;0.52;;;;;;;;;;5008420;28;20058;-83
2023/07/18 04:19:44;;;;;;;1.92;0.68;;;;;;;;;;5011111;28;20045;-82
2023/07/18 04:22:10;;;;;;;2.42;0.70;;;;;;;;;;5008134;28;20069;-86
2023/07/18 04:24:36;;;;;;;4.43;0.95;;;;;;;;;;5014280;28;20033;-87
2023/07/18 04:27:02;;;;;;;1.48;0.57;;;;;;;;;;5010368;28;20026;-85
2023/07/18 04:29:28;;;;;;;6.53;0.80;;;;;;;;;;5002188;28;20022;-82
2023/07/18 04:31:54;;;;;;;2.88;1.10;;;;;;;;;;4982762;28;20123;-84
2023/07/18 04:34:21;;;;;;;1.40;0.60;;;;;;;;;;4986768;28;20064;-86
2023/07/18 04:36:47;;;;;;;1.90;0.88;;;;;;;;;;4993410;28;20026;-83
2023/07/18 04:39:13;;;;;;;1.42;0.75;;;;;;;;;;4995599;28;20033;-81
2023/07/18 04:41:39;;;;;;;3.83;0.82;;;;;;;;;;5003000;28;20034;-83
2023/07/18 04:44:05;;;;;;;6.15;0.70;;;;;;;;;;5004243;28;20061;-82
2023/07/18 04:46:31;;;;;;;1.55;0.75;;;;;;;;;;5007317;28;20030;-81
2023/07/18 04:48:57;;;;;;;2.83;1.02;;;;;;;;;;5008611;28;20378;-83
2023/07/18 04:51:24;;;;;;;1.73;0.60;;;;;;;;;;5010776;28;20030;-86
2023/07/18 04:53:50;;;;;;;2.97;0.77;;;;;;;;;;5008811;28;20683;-84
2023/07/18 04:56:16;;;;;;;2.70;0.95;;;;;;;;;;5011025;28;20068;-84
2023/07/18 04:58:42;;;;;;;1.95;1.00;;;13.00;99.90;;;;;;5020770;28;20050;-84
2023/07/18 05:01:08;;;;;;;2.03;0.80;;;;;;;;;;5011582;28;20037;-85
2023/07/18 05:03:34;;;;;;;3.45;1.40;;;;;;;;;;5005359;28;20603;-84
2023/07/18 05:06:00;;;;;;;1.42;0.40;;;;;;;;;;5008873;28;20026;-85
2023/07/18 05:08:26;;;;;;;2.05;0.82;;;;;;;;;;5013495;28;20037;-89
2023/07/18 05:11:01;;;;;;;5.90;0.52;;;13.70;99.90;;;;;;5020293;28;20056;-85
2023/07/18 05:13:26;;;;;;;3.53;0.75;;;;;;;;;;5012818;28;20026;-85
2023/07/18 05:15:52;;;;;;;2.47;0.82;;;;;;;;;;5013862;28;20037;-87
2023/07/18 05:18:18;;;;;;;1.27;0.63;;;;;;;;;;5012702;28;20038;-85
2023/07/18 05:20:44;;;;;;;2.83;0.55;;;;;;;;;;5015727;28;20021;-86
2023/07/18 05:23:10;;;;;;;2.10;0.70;;;;;;;;;;5010892;28;20088;-87
2023/07/18 05:25:37;;;;;;;3.63;0.70;;;;;;;;;;5007053;28;20056;-85
2023/07/18 05:28:03;;;;;;;1.40;0.75;;;;;;;;;;5011358;28;20029;-86
2023/07/18 05:30:29;;;;;;;2.15;0.82;;;14.30;99.90;;;;;;5013283;28;20643;-84
2023/07/18 05:32:54;;;;;;;3.22;0.90;;;14.40;99.90;;;;;;5002206;28;20029;-83
2023/07/18 05:35:20;;;;;;;2.83;0.88;;;;;;;;;;5004214;28;20032;-86
2023/07/18 05:37:46;;;;;;;4.50;0.85;;;;;;;;;;5004634;28;20034;-85
2023/07/18 05:40:12;;;;;;;8.68;1.08;;;;;;;;;;5008296;28;20087;-84
2023/07/18 05:42:40;;;;;;;1.88;0.82;;;14.80;99.90;;;;;;5009550;28;20117;-83
2023/07/18 05:45:10;;;;;;;3.03;0.95;;;;;;;;;;5008587;28;20034;-84
2023/07/18 05:47:36;;;;;;;6.47;1.13;;;;;;;;;;5012755;28;20340;-86
2023/07/18 05:50:03;;;;;;;5.60;0.80;;;14.90;99.90;;;;;;5009880;28;20026;-84
2023/07/18 05:52:28;;;;;;;2.45;0.95;;;15.40;99.90;;;;;;5004438;28;20040;-83
2023/07/18 05:54:54;;;;;;;3.67;0.93;;;;;;;;;;5005112;28;20022;-83
2023/07/18 05:57:20;;;;;;;2.17;0.95;;;;;;;;;;5004184;28;20033;-84
2023/07/18 05:59:46;;;;;;;1.23;0.77;;;;;;;;;;5008753;28;20045;-83
2023/07/18 06:02:14;;;;;;;2.67;1.17;;;15.30;99.90;;;;;;5005305;28;20018;-84
2023/07/18 06:04:40;;;;;;;8.52;0.98;;;;;;;;;;5000969;28;20034;-84
2023/07/18 06:07:06;;;;;;;1.67;0.90;;;;;;;;;;5003372;28;20564;-83
2023/07/18 06:09:32;;;;;;;1.83;0.90;;;;;;;;;;5006028;28;20033;-82
2023/07/18 06:11:58;;;;;;;1.92;0.65;;;;;;;;;;5005338;28;21026;-86
2023/07/18 06:14:24;;;;;;;2.40;0.75;;;;;;;;;;5007869;28;20114;-80
2023/07/18 06:16:50;;;;;;;1.42;0.50;;;;;;;;;;5006859;28;20529;-82
2023/07/18 06:19:16;;;;;;;1.92;0.70;;;;;;;;;;5001724;28;20045;-78
2023/07/18 06:21:42;;;;;;;3.70;0.52;;;;;;;;;;5005554;28;20064;-78
2023/07/18 06:24:09;;;;;;;5.55;1.05;;;;;;;;;;5003451;28;20030;-82
2023/07/18 06:26:35;;;;;;;2.10;0.88;;;;;;;;;;4997656;28;20026;-82
2023/07/18 06:29:01;;;;;;;2.20;0.90;;;;;;;;;;5005274;28;20040;-80
2023/07/18 06:31:28;;;;;;;1.25;0.60;;;;;;;;;;5006949;28;20421;-81
2023/07/18 06:33:54;;;;;;;1.27;0.70;;;;;;;;;;5001610;28;20040;-82
2023/07/18 06:36:23;;;;;;;1.67;0.50;;;;;;;;;;5005847;28;20025;-82
2023/07/18 06:38:49;;;;;;;1.25;0.52;;;;;;;;;;5007428;28;20065;-85
2023/07/18 06:41:16;;;;;;;1.58;0.70;;;;;;;;;;5007729;28;20105;-85
2023/07/18 06:43:42;;;;;;;1.98;0.90;;;;;;;;;;5008812;28;20046;-84
2023/07/18 06:46:08;;;;;;;1.95;0.50;;;;;;;;;;5008785;28;20022;-84
2023/07/18 06:48:34;;;;;;;1.95;0.50;;;;;;;;;;5006297;28;20041;-84
2023/07/18 06:51:02;;;;;;;1.77;0.52;;;;;;;;;;5010195;28;20030;-81
2023/07/18 06:53:28;;;;;;;2.65;0.60;;;;;;;;;;5012367;28;20033;-82
2023/07/18 06:55:55;;;;;;;4.68;0.73;;;;;;;;;;5008939;28;20040;-84
2023/07/18 06:58:21;;;;;;;1.85;0.60;;;;;;;;;;5004549;28;20041;-80
2023/07/18 07:00:47;;;;;;;1.17;0.60;;;;;;;;;;5012980;28;20018;-82
2023/07/18 07:03:13;;;;;;;3.05;0.68;;;;;;;;;;5004721;28;20084;-80
2023/07/18 07:05:42;;;;;;;1.10;0.50;;;37.40;54.40;;;;;;5009891;28;20036;-82
2023/07/18 07:08:12;;;;;;;1.90;0.55;;;38.00;53.20;;;;;;5010780;28;20026;-83
2023/07/18 07:10:41;;;;;;;1.58;0.60;;;39.50;47.10;;;;;;5011272;28;20034;-84
2023/07/18 07:13:08;;;;;;;1.77;0.60;;;40.20;48.10;;;;;;5007099;28;20038;-81
2023/07/18 07:15:33;;;;;;;3.72;0.68;;;40.30;65.20;;;;;;5007832;28;20038;-79
2023/07/18 07:23:04;;;;;;;7.45;0.70;;;;;;;;;;5001553;28;20033;-81
2023/07/18 07:25:31;;;;;;;5.18;0.60;;;38.40;43.00;;;;;;4991853;28;20033;-81
2023/07/18 07:27:57;;;;;;;0.70;0.35;;;39.80;42.00;;;;;;5006884;28;20045;-79
2023/07/18 07:30:23;;;;;;;2.83;0.60;;;40.50;48.70;;;;;;5002889;28;20026;-79
2023/07/18 07:32:53;;;;;;;4.28;0.55;;;39.50;42.90;;;;;;4997456;28;20037;-83
2023/07/18 07:35:19;;;;;;;1.98;0.50;;;38.80;41.90;;;;;;4999245;28;20534;-81
2023/07/18 07:37:50;;;;;;;2.72;0.40;;;37.70;43.40;;;;;;5000277;28;20096;-80
2023/07/18 07:40:16;;;;;;;2.70;0.80;;;;;;;;;;5003335;28;20069;-84
2023/07/18 07:42:44;;;;;;;2.75;0.82;;;34.80;47.40;;;;;;5004708;28;20036;-82
2023/07/18 07:45:11;;;;;;;1.20;0.50;;;34.40;72.10;;;;;;5008526;28;20635;-80
2023/07/18 07:47:37;;;;;;;3.75;0.47;;;;;;;;;;5004188;28;20411;-83
2023/07/18 07:50:03;;;;;;;3.78;0.80;;;33.20;48.80;;;;;;5009335;28;20034;-82
2023/07/18 07:52:29;;;;;;;2.35;0.98;;;32.00;55.10;;;;;;5004923;28;20117;-80
2023/07/18 07:54:55;;;;;;;1.65;0.32;;;31.40;56.30;;;;;;5003780;28;20113;-80
2023/07/18 07:57:21;;;;;;;2.97;0.80;;;;;;;;;;5008792;28;20049;-81
2023/07/18 07:59:48;;;;;;;2.95;0.65;;;;;;;;;;5001948;28;20033;-81
2023/07/18 08:02:14;;;;;;;1.67;0.50;;;;;;;;;;5011483;28;20045;-82
2023/07/18 08:04:41;;;;;;;3.80;0.70;;;;;;;;;;5005791;28;20440;-79
2023/07/18 08:07:07;;;;;;;2.38;1.13;;;;;;;;;;5012557;28;20087;-83
2023/07/18 08:09:33;;;;;;;4.15;0.55;;;29.90;70.20;;;;;;5008793;28;20045;-81
2023/07/18 08:11:58;;;;;;;13.73;0.82;;;;;;;;;;5012103;28;20036;-82
2023/07/18 08:14:24;;;;;;;2.63;0.93;;;;;;;;;;4999356;28;20030;-79
2023/07/18 08:16:50;;;;;;;5.07;0.82;;;;;;;;;;4995357;28;20041;-80
2023/07/18 08:19:16;;;;;;;1.15;0.30;;;;;;;;;;5000009;28;20041;-83
2023/07/18 08:21:42;;;;;;;4.65;0.90;;;;;;;;;;5008288;28;20031;-81
2023/07/18 08:24:08;;;;;;;2.22;0.60;;;;;;;;;;5004368;28;20030;-82
2023/07/18 08:26:34;;;;;;;1.85;0.98;;;;;;;;;;5000516;28;20401;-80
2023/07/18 08:29:01;;;;;;;2.85;0.88;;;;;;;;;;4996809;28;20091;-84
2023/07/18 08:31:27;;;;;;;4.15;0.93;;;;;;;;;;4998920;28;20513;-81
2023/07/18 08:33:53;;;;;;;1.02;0.30;;;;;;;;;;5016483;28;20120;-80
2023/07/18 08:36:18;;;;;;;4.13;0.40;;;;;;;;;;4997989;28;20120;-82
2023/07/18 08:38:49;;;;;;;6.88;0.82;;;29.20;58.60;;;;;;5001633;28;20034;-80
2023/07/18 08:41:15;;;;;;;3.25;0.93;;;;;;;;;;5006601;28;20108;-82
2023/07/18 08:43:41;;;;;;;1.52;0.60;;;;;;;;;;5006365;28;20060;-83
2023/07/18 08:46:08;;;;;;;4.05;0.50;;;;;;;;;;5004547;28;20030;-80
2023/07/18 08:48:34;;;;;;;1.48;0.70;;;;;;;;;;5007036;28;20041;-84
2023/07/18 08:51:00;;;;;;;1.52;0.50;;;;;;;;;;5006128;28;20018;-81
2023/07/18 08:53:26;;;;;;;3.45;0.50;;;;;;;;;;5015312;28;20536;-81
2023/07/18 08:55:52;;;;;;;0.98;0.32;;;36.40;46.50;;;;;;5010877;28;20113;-83
2023/07/18 08:58:20;;;;;;;2.00;0.80;;;36.60;44.90;;;;;;5003509;28;20741;-82
2023/07/18 09:00:45;;;;;;;0.98;0.43;;;38.00;67.90;;;;;;5001633;28;20037;-77
2023/07/18 09:03:11;;;;;;;2.05;0.47;;;39.50;66.80;;;;;;5014349;28;20429;-78
2023/07/18 09:05:38;;;;;;;1.38;0.43;;;38.90;42.10;;;;;;5004110;28;20033;-78
2023/07/18 09:08:05;;;;;;;5.72;0.50;;;40.70;62.40;;;;;;5001944;28;20030;-80
2023/07/18 09:10:32;;;;;;;3.53;0.50;;;41.30;42.90;;;;;;5010696;28;20404;-83
2023/07/18 09:13:04;;;;;;;2.67;0.30;;;41.60;60.40;;;;;;5001080;28;20125;-79
2023/07/18 09:15:32;;;;;;;2.17;0.70;;;41.30;37.30;;;;;;5001583;28;20060;-80
2023/07/18 09:17:59;;;;;;;1.17;0.50;;;40.30;40.20;;;;;;5005332;28;20133;-83
2023/07/18 09:20:26;;;;;;;1.02;0.57;;;40.80;39.10;;;;;;4999495;28;20477;-83
2023/07/18 09:23:03;;;;;;;3.45;0.98;;;40.20;36.10;;;;;;4997547;28;20042;-80
2023/07/18 09:25:29;;;;;;;1.23;0.45;;;;;;;;;;4999469;28;20113;-82
2023/07/18 09:27:55;;;;;;;5.18;0.47;;;38.50;41.30;;;;;;4995178;28;20370;-81
2023/07/18 09:30:35;;;;;;;3.90;0.82;;;36.90;65.60;;;;;;4996797;28;20034;-78
2023/07/18 09:33:04;;;;;;;2.90;0.47;;;36.40;47.30;;;;;;4985910;28;20037;-84
2023/07/18 09:35:30;;;;;;;3.75;1.00;;;;;;;;;;4991995;28;20077;-83
2023/07/18 09:37:56;;;;;;;1.58;0.55;;;;;;;;;;4993716;28;20034;-78
2023/07/18 09:40:22;;;;;;;1.60;0.50;;;34.20;54.80;;;;;;4995986;28;20493;-81
2023/07/18 09:42:48;;;;;;;2.00;0.63;;;;;;;;;;4993653;28;20033;-79
2023/07/18 09:45:15;;;;;;;0.63;0.30;;;28.70;50.30;;;;;;4993415;28;20038;-80
2023/07/18 09:47:42;;;;;;;1.02;0.38;;;30.90;78.60;;;;;;4994226;28;20032;-78
2023/07/18 09:50:09;;;;;;;4.03;0.40;;;30.00;55.40;;;;;;4989051;28;20080;-84
2023/07/18 09:52:39;;;;;;;3.00;0.65;;;30.10;80.50;;;;;;4998091;28;20045;-80
2023/07/18 09:55:10;;;;;;;4.03;0.73;;;29.40;76.20;;;;;;5004450;28;20026;-80
2023/07/18 09:57:39;;;;;;;1.98;0.90;;;29.60;64.30;;;;;;5004355;28;20048;-81
2023/07/18 10:00:11;;;;;;;4.30;1.00;;;;;;;;;;4998035;28;20029;-79
2023/07/18 10:02:37;;;;;;;4.65;0.63;;;;;;;;;;5002032;28;20017;-77
2023/07/18 10:05:04;;;;;;;1.10;0.63;;;;;;;;;;5000202;28;20484;-81
2023/07/18 10:07:34;;;;;;;2.70;0.65;;;29.20;56.30;;;;;;4995481;28;20026;-79
2023/07/18 10:10:01;;;;;;;4.10;1.23;;;29.70;60.20;;;;;;5005593;28;20037;-78
2023/07/18 10:12:28;;;;;;;1.77;0.57;;;;;;;;;;5005818;28;20128;-80
2023/07/18 10:14:59;;;;;;;5.47;1.30;;;29.50;60.10;;;;;;4994510;28;20112;-84
2023/07/18 10:17:25;;;;;;;1.60;0.68;;;;;;;;;;4992746;28;21782;-80
2023/07/18 10:19:51;;;;;;;2.20;0.65;;;28.70;67.90;;;;;;4993288;28;20040;-81
2023/07/18 10:22:28;;;;;;;2.00;0.70;;;29.40;86.50;;;;;;4996662;28;21808;-77
2023/07/18 10:25:07;;;;;;;3.45;0.70;;;29.30;61.50;;;;;;4981125;28;20037;-80
2023/07/18 10:27:37;;;;;;;2.53;0.65;;;29.00;59.30;;;;;;5001741;28;21988;-82
2023/07/18 10:30:08;;;;;;;1.35;0.57;;;28.80;62.30;;;;;;5000416;28;20524;-88
2023/07/18 10:32:35;;;;;;;1.20;0.73;;;30.80;64.70;;;;;;4994433;28;20049;-80
2023/07/18 10:35:09;;;;;;;1.83;0.63;;;29.60;64.40;;;;;;4991966;28;20040;-85
2023/07/18 10:37:36;;;;;;;2.88;0.70;;;;;;;;;;4994184;28;20026;-78
2023/07/18 10:40:03;;;;;;;1.90;0.80;;;;;;;;;;5002790;28;20064;-82
2023/07/18 10:42:31;;;;;;;3.80;0.95;;;;;;;;;;5004129;28;20100;-82
2023/07/18 10:45:04;;;;;;;1.42;0.60;;;29.40;84.70;;;;;;5004718;28;20034;-77
2023/07/18 10:47:30;;;;;;;3.28;0.60;;;;;;;;;;5000403;28;20033;-85
2023/07/18 10:49:57;;;;;;;8.10;0.93;;;;;;;;;;4995914;28;20029;-79
2023/07/18 10:52:22;;;;;;;3.28;0.70;;;31.90;61.40;;;;;;4999446;28;20026;-81
2023/07/18 10:54:54;;;;;;;6.15;0.98;;;30.10;57.00;;;;;;5003746;28;20488;-80
2023/07/18 10:57:25;;;;;;;5.18;0.70;;;30.10;58.40;;;;;;5002464;28;20029;-80
2023/07/18 10:59:51;;;;;;;1.63;0.73;;;;;;;;;;4996266;28;20034;-85
2023/07/18 11:02:19;;;;;;;2.70;0.65;;;30.00;61.10;;;;;;4998303;28;20026;-77
2023/07/18 11:04:45;;;;;;;1.75;0.90;;;;;;;;;;4998921;28;20041;-78
2023/07/18 11:07:11;;;;;;;2.38;0.93;;;;;;;;;;5000040;28;20057;-77
2023/07/18 11:09:37;;;;;;;4.35;0.85;;;;;;;;;;5003980;28;20054;-78
2023/07/18 11:12:04;;;;;;;3.55;0.90;;;;;;;;;;5003110;28;20045;-80
2023/07/18 11:14:39;;;;;;;1.90;0.90;;;30.60;82.20;;;;;;4994232;28;20037;-78
2023/07/18 11:17:13;;;;;;;3.38;0.90;;;30.20;74.80;;;;;;4999511;28;20030;-79
2023/07/18 11:19:39;;;;;;;3.63;1.15;;;;;;;;;;5006904;28;20034;-81
2023/07/18 11:22:06;;;;;;;2.78;0.70;;;29.90;60.00;;;;;;4997003;28;20036;-80
2023/07/18 11:24:33;;;;;;;3.03;0.93;;;30.20;61.90;;;;;;4991709;28;20045;-79
2023/07/18 11:27:15;;;;;;;2.35;0.73;;;29.80;57.70;;;;;;4997373;28;20041;-80
2023/07/18 11:29:49;;;;;;;6.43;0.90;;;29.90;84.50;;;;;;5011303;28;20033;-78
2023/07/18 11:32:15;;;;;;;3.60;0.90;;;;;;;;;;4998845;28;20026;-80
2023/07/18 11:34:41;;;;;;;5.43;1.27;;;;;;;;;;5003183;28;20508;-81
2023/07/18 11:37:07;;;;;;;2.30;0.85;;;;;;;;;;4996345;28;20393;-80
2023/07/18 11:39:33;;;;;;;1.27;0.60;;;29.10;86.60;;;;;;5009143;28;20665;-79
2023/07/18 11:42:08;;;;;;;5.13;0.90;;;28.70;57.40;;;;;;4998943;28;20141;-81
2023/07/18 11:44:34;;;;;;;1.33;0.50;;;;;;;;;;5003033;28;20037;-80
2023/07/18 11:47:00;;;;;;;3.03;0.77;;;;;;;;;;5007452;28;20029;-79
2023/07/18 11:49:34;;;;;;;1.60;0.85;;;28.90;60.90;;;;;;5000292;28;20030;-79
2023/07/18 11:52:02;;;;;;;4.03;0.90;;;28.90;63.80;;;;;;5000152;28;20117;-79
2023/07/18 11:54:28;;;;;;;1.92;0.75;;;;;;;;;;4995490;28;20393;-81
2023/07/18 11:56:54;;;;;;;2.10;0.82;;;;;;;;;;5006543;28;20030;-81
2023/07/18 11:59:21;;;;;;;2.10;0.52;;;29.30;86.70;;;;;;4997486;28;20034;-77
2023/07/18 12:01:47;;;;;;;5.75;1.10;;;;;;;;;;4997325;28;20492;-79
2023/07/18 12:04:14;;;;;;;15.10;1.10;;;29.90;62.50;;;;;;5005000;28;20029;-79
2023/07/18 12:06:41;;;;;;;3.28;0.90;;;;;;;;;;4995588;28;20037;-80
2023/07/18 12:09:07;;;;;;;2.75;1.05;;;;;;;;;;5001517;28;20503;-83
2023/07/18 12:11:33;;;;;;;1.90;0.80;;;;;;;;;;5004464;28;20438;-80
2023/07/18 12:14:02;;;;;;;1.70;0.85;;;;;;;;;;4998670;28;20038;-83
2023/07/18 12:16:28;;;;;;;2.28;0.68;;;;;;;;;;4994587;28;20037;-80
2023/07/18 12:18:54;;;;;;;1.55;0.77;;;;;;;;;;5000381;28;20038;-84
2023/07/18 12:21:20;;;;;;;6.88;1.23;;;;;;;;;;5000469;28;20037;-86
2023/07/18 12:23:46;;;;;;;1.83;0.52;;;;;;;;;;4997273;28;20037;-83
2023/07/18 12:26:12;;;;;;;1.75;0.82;;;;;;;;;;4974487;28;20030;-82
2023/07/18 12:28:37;;;;;;;4.60;0.77;;;29.00;89.40;;;;;;4989270;28;20036;-78
2023/07/18 12:31:05;;;;;;;3.13;1.30;;;;;;;;;;4986999;28;20109;-82
2023/07/18 12:33:31;;;;;;;2.72;1.25;;;;;;;;;;4996085;28;20042;-87
2023/07/18 12:35:57;;;;;;;3.38;0.82;;;;;;;;;;4977251;28;20041;-82
2023/07/18 12:38:24;;;;;;;2.25;0.80;;;;;;;;;;4991946;28;20037;-78
2023/07/18 12:40:50;;;;;;;3.60;1.25;;;29.00;84.70;;;;;;4998403;28;20053;-77
2023/07/18 12:43:16;;;;;;;1.65;0.93;;;;;;;;;;4991472;28;20113;-83
2023/07/18 12:45:42;;;;;;;2.65;0.80;;;;;;;;;;5002121;28;20030;-82
2023/07/18 12:48:08;;;;;;;3.33;0.80;;;;;;;;;;4993668;28;20493;-80
2023/07/18 12:50:34;;;;;;;2.25;0.65;;;;;;;;;;5000171;28;20061;-83
2023/07/18 12:53:01;;;;;;;4.80;0.70;;;;;;;;;;4988362;28;20064;-83
2023/07/18 12:55:27;;;;;;;6.13;0.98;;;;;;;;;;5004175;28;21645;-78
2023/07/18 12:57:53;;;;;;;1.90;0.60;;;;;;;;;;4991472;28;20065;-78
2023/07/18 13:00:19;;;;;;;1.65;0.75;;;;;;;;;;4997387;28;20080;-78
2023/07/18 13:02:46;;;;;;;1.60;1.00;;;;;;;;;;5005251;28;20033;-79
2023/07/18 13:05:12;;;;;;;5.47;0.98;;;30.00;86.70;;;;;;4984343;28;20512;-80
2023/07/18 13:07:38;;;;;;;1.92;0.52;;;29.80;87.10;;;;;;4999517;28;20049;-78
2023/07/18 13:10:04;;;;;;;3.85;0.82;;;29.90;70.90;;;;;;4997334;28;20022;-79
2023/07/18 13:12:30;;;;;;;2.38;0.80;;;;;;;;;;4997743;28;20523;-79
2023/07/18 13:14:56;;;;;;;2.25;0.90;;;;;;;;;;4997199;28;20040;-80
2023/07/18 13:17:22;;;;;;;1.63;0.75;;;;;;;;;;4988443;28;20026;-79
2023/07/18 13:19:48;;;;;;;1.95;0.50;;;;;;;;;;4994595;28;20851;-79
2023/07/18 13:22:14;;;;;;;1.63;0.68;;;;;;;;;;4995241;28;20028;-78
2023/07/18 13:24:40;;;;;;;1.98;0.73;;;;;;;;;;5002848;28;20026;-79
2023/07/18 13:27:06;;;;;;;3.55;1.10;;;;;;;;;;4985345;28;20036;-79
2023/07/18 13:29:32;;;;;;;1.75;0.80;;;;;;;;;;4987477;28;20061;-80
2023/07/18 13:31:58;;;;;;;4.43;1.98;;;29.70;86.80;;;;;;5000739;28;20064;-77
2023/07/18 13:34:24;;;;;;;1.15;0.50;;;29.50;85.20;;;;;;4995766;28;20057;-77
2023/07/18 13:36:49;;;;;;;2.17;0.98;;;;;;;;;;4994947;28;20473;-79
2023/07/18 13:39:16;;;;;;;5.47;1.17;;;;;;;;;;4991277;28;20042;-84
2023/07/18 13:41:42;;;;;;;2.97;0.77;;;;;;;;;;4986794;28;20164;-80
2023/07/18 13:44:07;;;;;;;1.73;0.70;;;29.50;88.90;;;;;;4995487;28;20144;-78
2023/07/18 13:46:34;;;;;;;2.50;1.20;;;29.20;62.00;;;;;;5003522;28;20034;-81
2023/07/18 13:49:01;;;;;;;5.30;0.90;;;;;;;;;;4993129;28;20042;-82
2023/07/18 13:51:29;;;;;;;3.42;1.00;;;;;;;;;;4989979;28;20065;-84
2023/07/18 13:53:55;;;;;;;3.05;0.73;;;;;;;;;;4983423;28;20045;-81
2023/07/18 13:56:21;;;;;;;3.00;0.82;;;;;;;;;;4985026;28;20440;-83
2023/07/18 13:58:47;;;;;;;1.83;0.88;;;;;;;;;;4981225;28;20536;-83
2023/07/18 14:01:13;;;;;;;2.70;1.15;;;;;;;;;;4999628;28;20022;-80
2023/07/18 14:03:40;;;;;;;3.03;0.80;;;29.10;60.10;;;;;;4997841;28;20057;-82
2023/07/18 14:06:06;;;;;;;1.73;0.90;;;;;;;;;;4997959;28;20034;-79
2023/07/18 14:08:32;;;;;;;2.15;0.88;;;;;;;;;;5000827;28;20025;-82
2023/07/18 14:10:59;;;;;;;7.50;1.10;;;;;;;;;;4995664;28;20041;-79